Time;durP1;ratioP1;P1;durP2;ratioP2;P2;SDS_P1;SDS_P2;PMS_P1;PMS_P2;Temp;Humidity;BMP_temperature;BMP_pressure;BME280_temperature;BME280_humidity;BME280_pressure;Samples;Min_cycle;Max_cycle;Signal;HPM_P1;HPM_P2
2021/11/20 00:01:18;;;;;;;1.98;0.80;;;;;;;-3.42;100.00;98356.31;5072284;28;20072;-65
2021/11/20 00:03:48;;;;;;;2.05;1.17;;;;;;;-3.37;100.00;98354.41;5072888;28;20083;-65
2021/11/20 00:06:19;;;;;;;4.68;1.60;;;;;;;-3.26;100.00;98351.50;5072643;28;20055;-65
2021/11/20 00:08:46;;;;;;;1.75;1.00;;;;;;;-3.22;100.00;98352.22;5072901;28;20105;-66
2021/11/20 00:11:15;;;;;;;1.17;1.00;;;;;;;-3.14;100.00;98358.66;5072222;28;20558;-66
2021/11/20 00:13:43;;;;;;;1.38;1.00;;;;;;;-3.08;100.00;98360.16;5072184;28;20075;-65
2021/11/20 00:16:12;;;;;;;1.42;0.93;;;;;;;-2.91;100.00;98352.69;5072687;28;20541;-65
2021/11/20 00:18:40;;;;;;;1.95;0.93;;;;;;;-2.92;100.00;98355.31;5072371;28;20048;-66
2021/11/20 00:21:13;;;;;;;3.63;1.10;;;;;;;-2.77;100.00;98353.91;5072533;28;20109;-65
2021/11/20 00:23:44;;;;;;;2.38;1.10;;;;;;;-2.66;100.00;98339.84;5072258;28;20135;-65
2021/11/20 00:26:14;;;;;;;1.10;0.98;;;;;;;-2.57;100.00;98340.34;5072601;28;20048;-65
2021/11/20 00:29:17;;;;;;;1.92;1.05;;;;;;;-2.50;100.00;98345.13;5072610;28;20131;-65
2021/11/20 00:31:47;;;;;;;2.30;1.20;;;;;;;-2.46;100.00;98335.69;5072182;28;20052;-66
2021/11/20 00:34:17;;;;;;;1.40;1.00;;;;;;;-2.38;100.00;98333.66;5071764;28;20138;-65
2021/11/20 00:36:46;;;;;;;3.83;1.20;;;;;;;-2.42;100.00;98329.56;5072144;28;20081;-65
2021/11/20 00:39:15;;;;;;;2.72;1.25;;;;;;;-2.49;100.00;98325.59;5071851;28;20502;-65
2021/11/20 00:41:42;;;;;;;6.85;1.23;;;;;;;-2.44;100.00;98326.22;5072126;28;20142;-65
2021/11/20 00:44:09;;;;;;;;;;;;;;;-2.36;100.00;98318.28;5072665;28;20084;-66
2021/11/20 00:46:36;;;;;;;3.35;0.88;;;;;;;-2.43;100.00;98322.81;5071899;28;20441;-65
2021/11/20 00:49:05;;;;;;;2.03;1.15;;;;;;;-2.41;100.00;98321.03;5072087;28;20131;-65
2021/11/20 00:51:32;;;;;;;3.25;1.30;;;;;;;-2.38;100.00;98327.72;5071713;28;20458;-65
2021/11/20 00:54:02;;;;;;;3.63;1.10;;;;;;;-2.32;100.00;98319.81;5072305;28;20135;-65
2021/11/20 00:56:29;;;;;;;2.30;0.90;;;;;;;-2.41;100.00;98329.50;5071975;28;20056;-65
2021/11/20 00:58:58;;;;;;;3.38;1.08;;;;;;;-2.46;100.00;98331.41;5071928;28;20123;-65
2021/11/20 01:01:29;;;;;;;1.83;1.20;;;;;;;-2.38;100.00;98333.66;5071886;28;20071;-65
2021/11/20 01:03:57;;;;;;;0.85;0.80;;;;;;;-2.35;100.00;98330.16;5071963;28;20514;-65
2021/11/20 01:06:25;;;;;;;2.90;1.10;;;;;;;-2.35;100.00;98327.59;5071866;28;20080;-65
2021/11/20 01:08:54;;;;;;;4.05;1.10;;;;;;;-2.36;100.00;98326.78;5071824;28;20048;-65
2021/11/20 01:11:25;;;;;;;1.52;0.90;;;;;;;-2.41;100.00;98324.41;5071885;28;20072;-65
2021/11/20 01:13:54;;;;;;;2.20;1.00;;;;;;;-2.36;100.00;98316.59;5075005;28;20123;-65
2021/11/20 01:16:22;;;;;;;3.10;1.00;;;;;;;-2.44;100.00;98316.06;5075956;28;20080;-65
2021/11/20 01:18:49;;;;;;;;;;;;;;;-2.49;100.00;98315.41;5076573;28;20041;-65
2021/11/20 01:21:16;;;;;;;;;;;;;;;-2.39;100.00;98313.31;5075932;28;19974;-65
2021/11/20 01:23:45;;;;;;;2.75;1.00;;;;;;;-2.55;100.00;98321.59;5075955;28;20370;-65
2021/11/20 01:26:14;;;;;;;2.40;0.95;;;;;;;-2.44;100.00;98318.59;5075453;28;20267;-65
2021/11/20 01:28:45;;;;;;;1.20;0.90;;;;;;;-2.50;100.00;98319.69;5076024;28;20131;-65
2021/11/20 01:31:13;;;;;;;3.35;1.13;;;;;;;-2.46;100.00;98321.22;5075299;28;20500;-65
2021/11/20 01:33:42;;;;;;;4.60;1.23;;;;;;;-2.53;100.00;98322.34;5075618;28;20083;-65
2021/11/20 01:36:16;;;;;;;2.58;0.82;;;;;;;-2.48;100.00;98324.72;5075827;28;20136;-65
2021/11/20 01:38:45;;;;;;;1.95;0.98;;;;;;;-2.39;100.00;98318.41;5075886;28;20133;-65
2021/11/20 01:41:13;;;;;;;2.58;1.00;;;;;;;-2.46;100.00;98321.22;5075253;28;20139;-65
2021/11/20 01:43:42;;;;;;;1.25;0.93;;;;;;;-2.35;100.00;98325.88;5075777;28;20056;-65
2021/11/20 01:46:17;;;;;;;1.20;0.80;;;;;;;-2.41;100.00;98323.59;5075439;28;20044;-65
2021/11/20 01:48:55;;;;;;;1.70;0.80;;;;;;;-2.36;100.00;98316.59;5075360;28;20143;-65
2021/11/20 01:51:29;;;;;;;1.30;0.80;;;;;;;-2.41;100.00;98309.13;5075352;28;20163;-65
2021/11/20 01:54:05;;;;;;;2.33;0.75;;;;;;;-2.41;99.40;98311.69;5075201;28;20052;-65
2021/11/20 01:56:40;;;;;;;2.45;0.90;;;;;;;-2.37;99.60;98314.09;5074835;28;20055;-66
2021/11/20 01:59:17;;;;;;;3.42;0.93;;;;;;;-2.55;99.88;98316.50;5075208;28;20110;-66
2021/11/20 02:01:51;;;;;;;1.75;0.85;;;;;;;-2.76;100.00;98313.09;5075378;28;20076;-65
2021/11/20 02:04:25;;;;;;;3.60;1.00;;;;;;;-2.83;100.00;98309.13;5075072;28;20072;-65
2021/11/20 02:07:03;;;;;;;4.63;1.00;;;;;;;-2.83;100.00;98332.03;5075250;28;20090;-65
2021/11/20 02:09:35;;;;;;;1.63;0.80;;;;;;;-2.73;100.00;98324.88;5075003;28;20106;-65
2021/11/20 02:12:05;;;;;;;2.40;0.88;;;;;;;-2.92;100.00;98342.59;5074940;28;20138;-65
2021/11/20 02:14:34;;;;;;;0.93;0.80;;;;;;;-3.02;100.00;98338.75;5074496;28;20165;-65
2021/11/20 02:17:07;;;;;;;2.70;0.80;;;;;;;-3.14;100.00;98332.41;5075007;28;20143;-65
2021/11/20 02:19:37;;;;;;;2.85;1.05;;;;;;;-3.11;100.00;98329.72;5074476;28;20087;-65
2021/11/20 02:22:09;;;;;;;1.85;0.90;;;;;;;-3.17;100.00;98329.97;5074695;28;20120;-65
2021/11/20 02:24:35;;;;;;;0.82;0.70;;;;;;;-3.13;100.00;98324.72;5074052;28;20143;-65
2021/11/20 02:27:07;;;;;;;2.80;0.87;;;;;;;-3.23;100.00;98327.66;5075014;28;20463;-66
2021/11/20 02:29:44;;;;;;;3.00;0.90;;;;;;;-3.25;100.00;98329.44;5074495;28;20075;-65
2021/11/20 02:32:13;;;;;;;1.52;1.00;;;;;;;-3.31;100.00;98320.34;5074552;28;20049;-65
2021/11/20 02:34:40;;;;;;;2.20;0.88;;;;;;;-3.14;100.00;98330.66;5074754;28;20076;-66
2021/11/20 02:37:07;;;;;;;2.88;0.93;;;;;;;-3.23;100.00;98331.03;5074725;28;20475;-65
2021/11/20 02:39:35;;;;;;;1.92;0.90;;;;;;;-3.37;100.00;98333.25;5074042;28;20417;-66
2021/11/20 02:42:06;;;;;;;3.67;0.90;;;;;;;-3.48;100.00;98327.75;5074562;28;20080;-65
2021/11/20 02:44:34;;;;;;;2.65;1.00;;;;;;;-3.46;100.00;98326.81;5073952;28;20072;-65
2021/11/20 02:47:04;;;;;;;1.95;1.00;;;;;;;-3.53;100.00;98326.19;5073878;28;20052;-65
2021/11/20 02:49:33;;;;;;;1.60;1.08;;;;;;;-3.43;100.00;98325.88;5073937;28;20135;-65
2021/11/20 02:52:04;;;;;;;4.13;1.00;;;;;;;-3.47;100.00;98332.75;5074343;28;20052;-65
2021/11/20 02:54:31;;;;;;;1.42;1.20;;;;;;;-3.29;100.00;98341.41;5073787;28;20139;-65
2021/11/20 02:56:59;;;;;;;;;;;;;;;-3.31;100.00;98341.50;5074484;28;20485;-65
2021/11/20 02:59:27;;;;;;;2.45;1.48;;;;;;;-3.41;100.00;98345.25;5073696;28;19959;-65
2021/11/20 03:01:54;;;;;;;3.60;1.60;;;;;;;-3.42;100.00;98340.22;5074293;28;20045;-65
2021/11/20 03:04:23;;;;;;;4.30;2.13;;;;;;;-3.25;100.00;98344.69;5073916;28;20099;-66
2021/11/20 03:06:53;;;;;;;6.65;2.22;;;;;;;-3.35;100.00;98349.28;5073899;28;20494;-65
2021/11/20 03:09:23;;;;;;;4.43;2.63;;;;;;;-3.01;100.00;98348.84;5073733;28;20059;-65
2021/11/20 03:11:51;;;;;;;5.28;2.25;;;;;;;-3.21;100.00;98346.22;5073997;28;20115;-65
2021/11/20 03:14:19;;;;;;;3.60;2.17;;;;;;;-3.46;100.00;98351.41;5073330;28;20505;-65
2021/11/20 03:16:49;;;;;;;3.70;2.20;;;;;;;-3.65;100.00;98351.22;5073816;28;20556;-65
2021/11/20 03:19:16;;;;;;;3.65;2.10;;;;;;;-3.85;100.00;98352.78;5073541;28;20075;-65
2021/11/20 03:21:46;;;;;;;3.55;1.92;;;;;;;-3.82;100.00;98354.38;5073419;28;20084;-66
2021/11/20 03:24:17;;;;;;;3.85;2.00;;;;;;;-3.68;100.00;98356.41;5073524;28;20075;-66
2021/11/20 03:26:45;;;;;;;5.63;1.98;;;;;;;-3.37;100.00;98358.69;5073336;28;20041;-65
2021/11/20 03:29:11;;;;;;;;;;;;;;;-3.20;100.00;98351.25;5073675;28;20076;-65
2021/11/20 03:31:39;;;;;;;2.85;1.17;;;;;;;-3.28;100.00;98359.19;5073538;28;19971;-65
2021/11/20 03:34:06;;;;;;;2.95;1.17;;;;;;;-3.50;100.00;98356.56;5073148;28;20470;-65
2021/11/20 03:36:34;;;;;;;1.13;1.02;;;;;;;-3.75;100.00;98358.34;5072659;28;20075;-65
2021/11/20 03:39:02;;;;;;;4.07;1.10;;;;;;;-4.06;100.00;98353.50;5073112;28;20105;-65
2021/11/20 03:41:31;;;;;;;4.60;1.20;;;;;;;-4.09;100.00;98356.13;5073162;28;20067;-65
2021/11/20 03:43:58;;;;;;;2.00;1.33;;;;;;;-4.18;100.00;98359.81;5073280;28;20474;-66
2021/11/20 03:46:25;;;;;;;1.90;1.05;;;;;;;-4.13;100.00;98352.06;5073005;28;20110;-65
2021/11/20 03:48:53;;;;;;;1.50;0.90;;;;;;;-3.90;100.00;98348.69;5072929;28;20040;-64
2021/11/20 03:51:20;;;;;;;1.00;0.90;;;;;;;-4.01;100.00;98354.16;5072600;28;20525;-64
2021/11/20 03:53:47;;;;;;;0.98;0.88;;;;;;;-4.12;100.00;98358.78;5072684;28;20487;-65
2021/11/20 03:56:14;;;;;;;1.30;0.77;;;;;;;-4.03;100.00;98355.94;5072881;28;20080;-65
2021/11/20 03:58:42;;;;;;;1.60;1.00;;;;;;;-4.04;100.00;98365.25;5072763;28;20135;-65
2021/11/20 04:01:13;;;;;;;2.17;0.90;;;;;;;-4.22;100.00;98356.53;5073062;28;20076;-66
2021/11/20 04:03:42;;;;;;;1.65;1.00;;;;;;;-4.23;100.00;98357.44;5072982;28;20048;-66
2021/11/20 04:06:13;;;;;;;2.55;0.90;;;;;;;-4.33;100.00;98355.25;5072585;28;20080;-65
2021/11/20 04:08:40;;;;;;;2.10;0.90;;;;;;;-4.20;100.00;98362.41;5072588;28;20585;-65
2021/11/20 04:11:08;;;;;;;1.73;1.13;;;;;;;-4.17;100.00;98367.38;5072814;28;20141;-65
2021/11/20 04:13:36;;;;;;;2.95;0.95;;;;;;;-3.96;100.00;98368.38;5072333;28;20086;-65
2021/11/20 04:16:06;;;;;;;1.73;1.00;;;;;;;-4.14;100.00;98368.97;5072657;28;20044;-65
2021/11/20 04:18:35;;;;;;;1.00;1.00;;;;;;;-4.21;100.00;98367.56;5072148;28;20098;-65
2021/11/20 04:21:02;;;;;;;2.00;1.10;;;;;;;-4.23;100.00;98374.38;5072336;28;20044;-66
2021/11/20 04:23:29;;;;;;;;;;;;;;;-4.13;100.00;98364.75;5072561;28;20102;-65
2021/11/20 04:25:56;;;;;;;1.95;0.90;;;;;;;-4.22;100.00;98364.16;5072269;28;19921;-65
2021/11/20 04:28:23;;;;;;;5.18;1.23;;;;;;;-4.08;100.00;98365.44;5072432;28;20102;-65
2021/11/20 04:30:51;;;;;;;2.70;1.08;;;;;;;-3.96;100.00;98370.06;5072262;28;20080;-65
2021/11/20 04:33:19;;;;;;;3.30;1.15;;;;;;;-3.96;100.00;98375.16;5071981;28;20091;-65
2021/11/20 04:35:47;;;;;;;1.70;0.90;;;;;;;-4.07;100.00;98372.16;5072183;28;20502;-65
2021/11/20 04:38:13;;;;;;;;;;;;;;;-4.13;100.00;98374.91;5072277;28;20075;-65
2021/11/20 04:40:42;;;;;;;1.48;1.13;;;;;;;-4.26;100.00;98377.03;5072462;28;20015;-65
2021/11/20 04:43:10;;;;;;;2.28;1.15;;;;;;;-4.39;100.00;98379.97;5072095;28;20456;-65
2021/11/20 04:45:38;;;;;;;5.57;1.55;;;;;;;-4.38;100.00;98384.16;5072015;28;20573;-65
2021/11/20 04:48:07;;;;;;;3.80;1.40;;;;;;;-4.42;100.00;98382.59;5071693;28;20041;-65
2021/11/20 04:50:36;;;;;;;3.63;1.55;;;;;;;-4.49;100.00;98393.81;5072177;28;20244;-65
2021/11/20 04:53:04;;;;;;;6.35;1.42;;;;;;;-4.45;100.00;98399.63;5072366;28;20044;-65
2021/11/20 04:55:32;;;;;;;3.00;1.88;;;;;;;-4.40;100.00;98395.22;5071979;28;20071;-65
2021/11/20 04:57:59;;;;;;;4.90;1.90;;;;;;;-4.36;100.00;98396.81;5072135;28;20083;-65
2021/11/20 05:00:28;;;;;;;4.38;1.63;;;;;;;-4.51;100.00;98399.84;5072014;28;20161;-65
2021/11/20 05:02:56;;;;;;;5.88;1.50;;;;;;;-4.54;100.00;98400.75;5072256;28;20131;-65
2021/11/20 05:05:24;;;;;;;3.33;1.60;;;;;;;-4.56;100.00;98407.59;5072157;28;20074;-65
2021/11/20 05:07:53;;;;;;;4.65;1.80;;;;;;;-4.69;100.00;98416.47;5072064;28;20126;-65
2021/11/20 05:10:20;;;;;;;2.72;1.55;;;;;;;-4.61;100.00;98422.94;5071509;28;20492;-65
2021/11/20 05:12:47;;;;;;;2.85;1.48;;;;;;;-4.32;100.00;98423.75;5072092;28;20103;-65
2021/11/20 05:15:15;;;;;;;2.67;1.40;;;;;;;-4.51;100.00;98418.41;5071428;28;20092;-65
2021/11/20 05:17:43;;;;;;;3.92;1.50;;;;;;;-4.67;100.00;98419.78;5072045;28;20049;-65
2021/11/20 05:20:11;;;;;;;4.05;1.65;;;;;;;-4.79;100.00;98425.22;5071952;28;20446;-65
2021/11/20 05:22:38;;;;;;;3.33;1.50;;;;;;;-4.85;100.00;98427.06;5071705;28;20083;-65
2021/11/20 05:25:09;;;;;;;4.03;1.30;;;;;;;-4.73;100.00;98432.63;5072021;28;20483;-65
2021/11/20 05:27:37;;;;;;;4.90;1.52;;;;;;;-4.77;100.00;98426.84;5071662;28;20505;-65
2021/11/20 05:30:08;;;;;;;5.40;1.48;;;;;;;-4.79;100.00;98430.28;5071784;28;20131;-65
2021/11/20 05:32:36;;;;;;;1.60;1.20;;;;;;;-4.73;100.00;98435.19;5071721;28;20052;-65
2021/11/20 05:35:03;;;;;;;3.20;1.80;;;;;;;-4.84;100.00;98438.03;5071561;28;20120;-65
2021/11/20 05:37:31;;;;;;;3.55;1.85;;;;;;;-4.84;100.00;98436.31;5071169;28;20078;-65
2021/11/20 05:39:59;;;;;;;3.20;1.38;;;;;;;-4.83;100.00;98434.59;5071468;28;20068;-65
2021/11/20 05:42:27;;;;;;;3.13;1.30;;;;;;;-4.77;100.00;98439.53;5071268;28;20048;-65
2021/11/20 05:44:54;;;;;;;1.50;1.20;;;;;;;-4.81;100.00;98432.88;5071810;28;20136;-65
2021/11/20 05:47:21;;;;;;;1.38;1.10;;;;;;;-4.86;100.00;98429.63;5071110;28;20590;-65
2021/11/20 05:49:48;;;;;;;2.45;1.15;;;;;;;-4.78;100.00;98439.56;5071758;28;20388;-65
2021/11/20 05:52:16;;;;;;;;;;;;;;;-4.84;100.00;98441.41;5071567;28;20129;-65
2021/11/20 05:54:44;;;;;;;4.47;1.10;;;;;;;-4.82;100.00;98443.91;5071590;28;20015;-65
2021/11/20 05:57:11;;;;;;;1.98;1.00;;;;;;;-4.94;100.00;98444.25;5071668;28;20070;-65
2021/11/20 05:59:40;;;;;;;3.30;1.75;;;;;;;-5.05;100.00;98447.94;5073908;28;20290;-65
2021/11/20 06:02:07;;;;;;;2.05;1.10;;;;;;;-5.06;100.00;98461.50;5074778;28;20357;-65
2021/11/20 06:04:35;;;;;;;2.35;1.30;;;;;;;-4.97;100.00;98451.97;5074991;28;20139;-65
2021/11/20 06:07:03;;;;;;;1.00;1.00;;;;;;;-4.94;100.00;98451.88;5074801;28;20497;-65
2021/11/20 06:09:30;;;;;;;1.05;0.93;;;;;;;-4.92;100.00;98450.13;5074946;28;20140;-65
2021/11/20 06:11:57;;;;;;;2.47;1.20;;;;;;;-4.85;100.00;98456.69;5074712;28;20053;-65
2021/11/20 06:14:25;;;;;;;2.42;1.13;;;;;;;-4.60;100.00;98452.53;5074393;28;20056;-65
2021/11/20 06:16:53;;;;;;;2.05;1.17;;;;;;;-4.64;100.00;98457.75;5074633;28;20045;-65
2021/11/20 06:19:21;;;;;;;3.05;1.60;;;;;;;-4.56;100.00;98460.06;5074322;28;20139;-65
2021/11/20 06:21:48;;;;;;;2.03;1.17;;;;;;;-4.30;100.00;98460.06;5075045;28;20078;-65
2021/11/20 06:24:15;;;;;;;3.30;1.30;;;;;;;-4.35;100.00;98464.47;5074589;28;20048;-65
2021/11/20 06:26:42;;;;;;;2.42;1.50;;;;;;;-4.39;100.00;98466.28;5074874;28;20069;-65
2021/11/20 06:29:09;;;;;;;4.15;1.15;;;;;;;-4.19;100.00;98467.34;5074739;28;20138;-65
2021/11/20 06:31:36;;;;;;;3.67;1.40;;;;;;;-4.21;100.00;98458.97;5074225;28;20079;-65
2021/11/20 06:34:05;;;;;;;1.88;1.10;;;;;;;-4.26;99.91;98451.50;5074956;28;20465;-65
2021/11/20 06:36:32;;;;;;;2.88;1.27;;;;;;;-4.31;100.00;98455.88;5074685;28;20099;-65
2021/11/20 06:39:00;;;;;;;1.83;1.00;;;;;;;-4.30;100.00;98469.41;5074515;28;20135;-65
2021/11/20 06:41:28;;;;;;;3.60;1.20;;;;;;;-4.19;100.00;98470.75;5074270;28;20052;-65
2021/11/20 06:43:55;;;;;;;4.82;1.52;;;;;;;-4.25;100.00;98476.00;5074700;28;20076;-65
2021/11/20 06:46:22;;;;;;;7.72;1.40;;;;;;;-4.23;100.00;98473.41;5074230;28;20329;-65
2021/11/20 06:48:49;;;;;;;;;;;;;;;-4.29;100.00;98481.22;5074509;28;20144;-65
2021/11/20 06:51:18;;;;;;;3.05;1.20;;;;;;;-4.20;100.00;98476.69;5074157;28;19920;-65
2021/11/20 06:53:46;;;;;;;6.43;1.38;;;;;;;-4.28;100.00;98476.09;5074457;28;20048;-65
2021/11/20 06:56:16;;;;;;;3.65;1.13;;;;;;;-4.32;100.00;98486.38;5074064;28;20072;-65
2021/11/20 06:59:06;;;;;;;2.35;1.30;;;;;;;-4.32;100.00;98487.22;5073885;28;20044;-65
2021/11/20 07:01:34;;;;;;;3.13;1.23;;;;;;;-4.10;100.00;98486.56;5073459;28;20552;-66
2021/11/20 07:04:04;;;;;;;3.42;1.45;;;;;;;-4.09;99.50;98490.75;5073581;28;20072;-66
2021/11/20 07:06:35;;;;;;;2.70;1.30;;;;;;;-4.20;99.70;98486.00;5073457;28;20092;-67
2021/11/20 07:09:02;;;;;;;2.17;1.10;;;;;;;-4.31;100.00;98490.59;5073654;28;20071;-66
2021/11/20 07:11:29;;;;;;;4.32;1.60;;;;;;;-4.31;100.00;98493.16;5072378;28;20098;-66
2021/11/20 07:13:57;;;;;;;3.00;1.48;;;;;;;-4.34;100.00;98501.69;5073667;28;20125;-66
2021/11/20 07:16:26;;;;;;;3.22;1.40;;;;;;;-4.20;100.00;98499.53;5073359;28;20052;-66
2021/11/20 07:18:53;;;;;;;1.98;1.20;;;;;;;-4.26;99.96;98499.75;5073719;28;20048;-66
2021/11/20 07:21:24;;;;;;;;;;;;;;;-4.37;99.90;98517.00;5073981;28;20127;-66
2021/11/20 07:23:53;;;;;;;2.50;1.73;;;;;;;-4.36;99.92;98510.22;5073844;28;19955;-66
2021/11/20 07:26:20;;;;;;;5.05;1.90;;;;;;;-4.36;100.00;98513.59;5073006;28;20139;-66
2021/11/20 07:28:48;;;;;;;2.30;1.40;;;;;;;-4.36;100.00;98512.75;5073607;28;20540;-66
2021/11/20 07:31:15;;;;;;;4.25;1.67;;;;;;;-4.35;100.00;98522.03;5072959;28;20495;-66
2021/11/20 07:33:42;;;;;;;3.83;1.42;;;;;;;-4.36;100.00;98520.38;5073315;28;20518;-68
2021/11/20 07:36:10;;;;;;;4.28;1.48;;;;;;;-4.36;100.00;98520.38;5073592;28;20076;-66
2021/11/20 07:38:41;;;;;;;1.88;1.38;;;;;;;-4.26;100.00;98527.66;5073139;28;20044;-66
2021/11/20 07:41:11;;;;;;;3.00;1.67;;;;;;;-4.29;99.95;98527.78;5073294;28;20076;-65
2021/11/20 07:43:39;;;;;;;2.28;1.40;;;;;;;-4.38;100.00;98523.78;5073349;28;20049;-65
2021/11/20 07:46:07;;;;;;;2.78;1.60;;;;;;;-4.42;100.00;98521.38;5073004;28;20098;-67
2021/11/20 07:48:37;;;;;;;3.33;2.08;;;;;;;-4.33;100.00;98523.66;5072633;28;20542;-67
2021/11/20 07:51:05;;;;;;;4.35;1.90;;;;;;;-4.29;100.00;98526.91;5073390;28;20552;-66
2021/11/20 07:53:32;;;;;;;2.15;1.38;;;;;;;-4.03;99.28;98519.34;5073127;28;20426;-67
2021/11/20 07:55:59;;;;;;;2.15;1.20;;;;;;;-3.66;98.04;98523.22;5072794;28;20565;-67
2021/11/20 07:58:29;;;;;;;3.17;1.70;;;;;;;-3.64;97.94;98523.19;5072913;28;20084;-67
2021/11/20 08:00:57;;;;;;;2.75;1.58;;;;;;;-3.69;97.90;98518.25;5072772;28;20135;-67
2021/11/20 08:03:24;;;;;;;2.53;1.33;;;;;;;-3.67;97.85;98516.50;5072539;28;20098;-67
2021/11/20 08:05:53;;;;;;;3.08;1.38;;;;;;;-3.66;97.97;98523.22;5072618;28;20499;-67
2021/11/20 08:08:21;;;;;;;2.63;1.27;;;;;;;-3.57;97.64;98534.78;5072248;28;20044;-68
2021/11/20 08:10:49;;;;;;;2.95;1.20;;;;;;;-3.55;97.16;98535.56;5072444;28;20072;-67
2021/11/20 08:13:16;;;;;;;1.55;1.10;;;;;;;-3.53;96.99;98531.28;5072187;28;20117;-67
2021/11/20 08:15:44;;;;;;;;;;;;;;;-3.44;96.56;98538.63;5073281;28;20079;-67
2021/11/20 08:18:11;;;;;;;1.23;1.02;;;;;;;-3.45;97.31;98546.28;5072694;28;19973;-67
2021/11/20 08:20:41;;;;;;;1.85;1.15;;;;;;;-3.43;97.40;98542.81;5072287;28;20072;-67
2021/11/20 08:23:10;;;;;;;3.40;1.30;;;;;;;-3.25;96.98;98548.16;5072365;28;20409;-68
2021/11/20 08:25:38;;;;;;;1.85;1.40;;;;;;;-3.18;96.40;98549.63;5072618;28;20091;-67
2021/11/20 08:28:06;;;;;;;2.75;1.40;;;;;;;-3.03;96.17;98546.53;5072257;28;20127;-67
2021/11/20 08:30:33;;;;;;;2.40;1.13;;;;;;;-2.95;95.39;98548.81;5071928;28;20079;-67
2021/11/20 08:33:03;;;;;;;1.92;1.00;;;;;;;-2.92;95.11;98556.34;5072311;28;20197;-67
2021/11/20 08:35:32;;;;;;;1.55;1.33;;;;;;;-2.91;94.97;98558.81;5072227;28;20079;-67
2021/11/20 08:38:00;;;;;;;2.45;1.33;;;;;;;-3.05;95.08;98562.75;5072495;28;20075;-67
2021/11/20 08:40:30;;;;;;;2.05;1.40;;;;;;;-3.12;95.76;98564.66;5071786;28;20087;-68
2021/11/20 08:42:59;;;;;;;2.20;1.45;;;;;;;-2.96;93.30;98560.69;5072232;28;20060;-67
2021/11/20 08:45:28;;;;;;;2.88;1.63;;;;;;;-2.95;92.79;98561.53;5072055;28;20041;-67
2021/11/20 08:47:56;;;;;;;2.17;1.40;;;;;;;-2.89;92.99;98574.88;5072256;28;20136;-68
2021/11/20 08:50:28;;;;;;;4.45;1.90;;;;;;;-2.86;92.12;98577.28;5071980;28;20103;-67
2021/11/20 08:52:55;;;;;;;2.95;1.58;;;;;;;-2.89;92.57;98584.22;5067189;28;20123;-67
2021/11/20 08:55:23;;;;;;;3.30;1.60;;;;;;;-3.00;91.92;98586.31;5068659;28;20490;-67
2021/11/20 08:57:50;;;;;;;2.97;1.45;;;;;;;-3.07;92.39;98594.13;5069598;28;20259;-67
2021/11/20 09:00:21;;;;;;;2.35;1.25;;;;;;;-2.99;93.00;98578.59;5068697;28;20048;-67
2021/11/20 09:02:56;;;;;;;2.53;1.15;;;;;;;-2.97;93.60;98583.66;5072176;28;20139;-67
2021/11/20 09:05:35;;;;;;;1.52;1.15;;;;;;;-2.91;93.74;98585.97;5071969;28;20110;-67
2021/11/20 09:08:05;;;;;;;1.65;1.15;;;;;;;-2.91;92.77;98586.81;5072098;28;20072;-67
2021/11/20 09:10:39;;;;;;;2.92;1.42;;;;;;;-2.84;92.75;98592.53;5069341;28;20267;-67
2021/11/20 09:13:10;;;;;;;2.53;1.30;;;;;;;-2.83;92.53;98591.63;5071667;28;20512;-67
2021/11/20 09:15:41;;;;;;;2.13;1.10;;;;;;;-2.92;92.75;98595.34;5071996;28;20139;-67
2021/11/20 09:18:09;;;;;;;2.58;1.30;;;;;;;-2.91;92.80;98588.53;5071931;28;20151;-66
2021/11/20 09:20:38;;;;;;;1.20;1.10;;;;;;;-2.77;92.23;98590.59;5071338;28;20087;-67
2021/11/20 09:23:07;;;;;;;3.60;1.42;;;;;;;-3.05;93.19;98595.81;5071645;28;20044;-67
2021/11/20 09:25:36;;;;;;;1.50;1.08;;;;;;;-2.95;93.53;98598.00;5068961;28;20548;-68
2021/11/20 09:28:06;;;;;;;1.77;1.02;;;;;;;-2.91;93.11;98596.16;5071869;28;20056;-67
2021/11/20 09:30:37;;;;;;;1.60;1.20;;;;;;;-2.92;92.43;98595.34;5071271;28;20056;-66
2021/11/20 09:33:04;;;;;;;1.23;1.10;;;;;;;-3.07;92.78;98599.22;5072339;28;20124;-66
2021/11/20 09:35:32;;;;;;;1.77;1.20;;;;;;;-3.13;93.86;98611.34;5075451;28;20179;-67
2021/11/20 09:38:00;;;;;;;1.15;1.05;;;;;;;-2.92;93.00;98612.31;5076015;28;20123;-67
2021/11/20 09:40:30;;;;;;;0.80;0.80;;;;;;;-3.05;93.35;98622.09;5075454;28;20099;-67
2021/11/20 09:43:01;;;;;;;1.10;1.00;;;;;;;-3.07;93.78;98628.94;5075925;28;20098;-67
2021/11/20 09:45:30;;;;;;;1.95;0.95;;;;;;;-2.89;93.71;98622.41;5075093;28;20051;-67
2021/11/20 09:48:00;;;;;;;1.20;0.80;;;;;;;-2.91;93.50;98634.34;5075163;28;20143;-68
2021/11/20 09:50:30;;;;;;;1.20;1.08;;;;;;;-2.94;92.80;98635.25;5075309;28;20099;-67
2021/11/20 09:52:58;;;;;;;0.95;0.90;;;;;;;-3.04;92.67;98639.00;5075201;28;20510;-68
2021/11/20 09:55:29;;;;;;;0.75;0.75;;;;;;;-3.03;92.79;98630.50;5075208;28;20072;-68
2021/11/20 09:57:59;;;;;;;0.80;0.80;;;;;;;-3.05;92.75;98641.63;5075096;28;20131;-67
2021/11/20 10:00:53;;;;;;;2.72;1.00;;;;;;;-3.08;93.12;98643.38;5072177;28;20044;-67
2021/11/20 10:03:33;;;;;;;1.85;0.80;;;;;;;-3.08;92.93;98650.19;5057753;28;20135;-66
2021/11/20 10:06:05;;;;;;;2.67;0.93;;;;;;;-3.20;93.81;98656.50;5075345;28;20572;-67
2021/11/20 10:08:34;;;;;;;2.72;1.80;;;;;;;-3.16;93.59;98652.13;5074537;28;20045;-67
2021/11/20 10:11:24;;;;;;;0.93;0.90;;;;;;;-3.27;93.88;98662.66;5074833;28;20099;-68
2021/11/20 10:13:56;;;;;;;0.93;0.90;;;;;;;-3.31;92.66;98661.09;5074768;28;20110;-67
2021/11/20 10:16:26;;;;;;;0.70;0.70;;;;;;;-3.20;93.94;98673.47;5074600;28;20518;-68
2021/11/20 10:18:57;;;;;;;0.80;0.80;;;;;;;-3.26;93.48;98673.66;5074736;28;20139;-67
2021/11/20 10:21:31;;;;;;;1.00;0.88;;;;;;;-3.13;93.31;98675.75;5074388;28;20110;-67
2021/11/20 10:24:07;;;;;;;1.52;0.90;;;;;;;-3.04;93.68;98683.97;5074665;28;20084;-68
2021/11/20 10:27:02;;;;;;;1.73;0.80;;;;;;;-2.88;92.96;98682.56;5074449;28;20135;-67
2021/11/20 10:29:49;;;;;;;1.77;1.40;;;;;;;-2.76;91.89;98691.53;5074474;28;20072;-67
2021/11/20 10:32:19;;;;;;;1.45;0.90;;;;;;;-2.93;92.17;98695.47;5074445;28;20122;-67
2021/11/20 10:35:03;;;;;;;1.27;1.00;;;;;;;-3.09;93.04;98700.22;5074382;28;20135;-67
2021/11/20 10:37:49;;;;;;;0.80;0.80;;;;;;;-2.77;92.53;98713.63;5074056;28;20080;-67
2021/11/20 10:40:32;;;;;;;1.73;0.90;;;;;;;-2.88;92.57;98708.88;5074077;28;20052;-67
2021/11/20 10:43:08;;;;;;;0.93;0.93;;;;;;;-2.74;92.89;98716.03;5074055;28;20558;-67
2021/11/20 10:45:44;;;;;;;1.00;0.93;;;;;;;-2.74;91.97;98712.69;5073925;28;20114;-67
2021/11/20 10:48:25;;;;;;;1.50;0.73;;;;;;;-2.60;93.70;98712.19;5074138;28;20045;-67
2021/11/20 10:51:11;;;;;;;0.93;0.93;;;;;;;-2.68;91.13;98717.56;5074466;28;20048;-67
2021/11/20 10:54:33;;;;;;;0.80;0.80;;;;;;;-2.67;92.29;98724.31;5074293;28;20129;-66
2021/11/20 10:57:04;;;;;;;2.67;1.48;;;;;;;-2.75;92.09;98726.28;5074196;28;20495;-67
2021/11/20 11:00:10;;;;;;;1.25;1.00;;;;;;;-2.94;93.56;98721.78;5072610;28;20079;-67
2021/11/20 11:03:13;;;;;;;1.33;0.90;;;;;;;-2.87;92.95;98723.25;5054525;28;20056;-67
2021/11/20 11:05:58;;;;;;;1.23;1.00;;;;;;;-2.84;92.19;98724.88;5054307;28;20053;-68
2021/11/20 11:08:33;;;;;;;0.90;0.90;;;;;;;-2.86;92.58;98729.16;5053751;28;20045;-67
2021/11/20 11:11:05;;;;;;;1.20;1.00;;;;;;;-2.83;92.39;98728.25;5054025;28;20483;-68
2021/11/20 11:13:48;;;;;;;0.95;0.93;;;;;;;-2.97;93.57;98743.97;5053347;28;20088;-68
2021/11/20 11:16:25;;;;;;;1.10;1.00;;;;;;;-3.03;93.78;98739.91;5053701;28;20049;-68
2021/11/20 11:18:53;;;;;;;;;;;;;;;-3.10;93.70;98746.06;5053990;28;20045;-67
2021/11/20 11:21:54;;;;;;;1.35;0.90;;;;;;;-2.99;92.78;98741.47;5053211;28;20016;-68
2021/11/20 11:25:00;;;;;;;1.13;1.00;;;;;;;-3.01;93.66;98753.41;5053569;28;20048;-67
2021/11/20 11:27:30;;;;;;;1.25;1.00;;;;;;;-2.87;92.79;98752.97;5053114;28;20099;-67
2021/11/20 11:30:05;;;;;;;1.88;1.10;;;;;;;-3.14;92.10;98758.03;5053959;28;20079;-67
2021/11/20 11:32:35;;;;;;;3.53;1.10;;;;;;;-3.18;92.73;98753.94;5053492;28;20384;-68
2021/11/20 11:35:10;;;;;;;1.00;0.98;;;;;;;-3.19;94.23;98753.97;5053719;28;20484;-67
2021/11/20 11:37:59;;;;;;;1.48;1.00;;;;;;;-3.29;94.18;98754.28;5053242;28;20095;-67
2021/11/20 11:40:34;;;;;;;0.98;0.90;;;;;;;-3.35;93.00;98761.25;5053259;28;20045;-67
2021/11/20 11:43:10;;;;;;;1.85;0.95;;;;;;;-3.04;92.37;98767.94;5053378;28;20056;-67
2021/11/20 11:46:16;;;;;;;1.13;0.90;;;;;;;-3.33;93.21;98767.13;5053017;28;20491;-68
2021/11/20 11:48:57;;;;;;;1.25;1.13;;;;;;;-3.30;92.78;98769.56;5053335;28;20106;-67